Terminal Aerodrome Forecast
Issued by NWS

Home | Current Version | Previous Version | Text Only | Print | Product List | Glossary On
Versions: 1 2 3 4 5 6 7 8 9 10 11 12 13
000
FTUS42 KMLB 220520
TAFSUA
TAF
KSUA 220520Z 2206/2306 22005KT P6SM SCT250
     FM221400 33005KT P6SM FEW030 SCT250
     FM221800 08009KT P6SM VCTS SCT040CB
     FM230000 10007KT P6SM VCSH FEW030 SCT060 BKN100=

USA.gov is the U.S. government's official web portal to all federal, state and local government web resources and services.